sensor_id;sensor_type;location;lat;lon;timestamp;noise_LAeq;noise_LA_min;noise_LA_max;noise_LA01;noise_LA95
48148;Laerm;29352;48.708;9.290;2023-07-13T20:03:28;52.97;51.61;54.07;;
48148;Laerm;29352;48.708;9.290;2023-07-13T20:05:54;52.78;51.75;53.90;;
48148;Laerm;29352;48.708;9.290;2023-07-13T20:08:20;52.68;51.68;53.63;;
48148;Laerm;29352;48.708;9.290;2023-07-13T20:10:48;52.59;51.30;53.54;;
48148;Laerm;29352;48.708;9.290;2023-07-13T20:13:18;52.60;51.53;53.54;;
48148;Laerm;29352;48.708;9.290;2023-07-13T20:15:47;52.67;51.38;53.68;;
48148;Laerm;29352;48.708;9.290;2023-07-13T20:18:15;52.78;51.82;54.51;;
48148;Laerm;29352;48.708;9.290;2023-07-13T20:20:44;52.76;51.68;53.90;;
48148;Laerm;29352;48.708;9.290;2023-07-13T20:23:21;52.71;51.61;53.58;;
48148;Laerm;29352;48.708;9.290;2023-07-13T20:25:51;52.72;51.68;53.72;;
48148;Laerm;29352;48.708;9.290;2023-07-13T20:28:17;52.73;51.53;53.90;;
48148;Laerm;29352;48.708;9.290;2023-07-13T20:30:48;52.73;51.61;53.68;;
48148;Laerm;29352;48.708;9.290;2023-07-13T20:33:23;52.77;51.68;53.86;;
48148;Laerm;29352;48.708;9.290;2023-07-13T20:36:00;52.83;51.82;53.81;;
48148;Laerm;29352;48.708;9.290;2023-07-13T20:38:27;52.91;51.82;53.94;;
48148;Laerm;29352;48.708;9.290;2023-07-13T20:40:53;52.97;51.89;54.15;;
48148;Laerm;29352;48.708;9.290;2023-07-13T20:43:20;53.06;51.89;54.11;;
48148;Laerm;29352;48.708;9.290;2023-07-13T20:45:55;53.33;52.16;54.31;;
48148;Laerm;29352;48.708;9.290;2023-07-13T20:48:33;53.10;51.89;54.34;;
48148;Laerm;29352;48.708;9.290;2023-07-13T20:51:02;52.81;51.68;53.86;;
48148;Laerm;29352;48.708;9.290;2023-07-13T20:53:28;52.86;51.75;53.99;;
48148;Laerm;29352;48.708;9.290;2023-07-13T20:55:54;52.81;51.68;54.03;;
48148;Laerm;29352;48.708;9.290;2023-07-13T20:58:20;52.78;51.68;53.81;;
48148;Laerm;29352;48.708;9.290;2023-07-13T21:00:46;52.79;51.75;53.77;;
48148;Laerm;29352;48.708;9.290;2023-07-13T21:03:27;52.92;51.75;53.99;;
48148;Laerm;29352;48.708;9.290;2023-07-13T21:06:06;53.05;51.75;53.94;;
48148;Laerm;29352;48.708;9.290;2023-07-13T21:08:35;52.85;51.61;54.01;;
48148;Laerm;29352;48.708;9.290;2023-07-13T21:11:02;52.70;51.46;53.77;;
48148;Laerm;29352;48.708;9.290;2023-07-13T21:13:27;52.74;51.53;53.94;;
48148;Laerm;29352;48.708;9.290;2023-07-13T21:15:53;52.60;51.46;53.81;;
48148;Laerm;29352;48.708;9.290;2023-07-13T21:18:23;52.28;51.06;53.19;;
48148;Laerm;29352;48.708;9.290;2023-07-13T21:20:54;52.40;51.22;53.34;;
48148;Laerm;29352;48.708;9.290;2023-07-13T21:23:35;52.44;51.06;53.39;;
48148;Laerm;29352;48.708;9.290;2023-07-13T21:26:05;52.25;51.06;53.34;;
48148;Laerm;29352;48.708;9.290;2023-07-13T21:28:49;52.15;50.71;53.58;;
48148;Laerm;29352;48.708;9.290;2023-07-13T21:31:32;52.24;51.06;53.63;;
48148;Laerm;29352;48.708;9.290;2023-07-13T21:34:15;52.35;51.06;53.44;;
48148;Laerm;29352;48.708;9.290;2023-07-13T21:36:42;52.14;50.80;53.29;;
48148;Laerm;29352;48.708;9.290;2023-07-13T21:39:15;51.75;50.43;52.93;;
48148;Laerm;29352;48.708;9.290;2023-07-13T21:41:43;51.70;50.13;53.19;;
48148;Laerm;29352;48.708;9.290;2023-07-13T21:44:30;51.79;50.43;53.04;;
48148;Laerm;29352;48.708;9.290;2023-07-13T21:46:56;51.85;50.53;53.04;;
48148;Laerm;29352;48.708;9.290;2023-07-13T21:49:23;51.94;50.62;53.14;;
48148;Laerm;29352;48.708;9.290;2023-07-13T21:51:49;51.84;50.43;52.93;;
48148;Laerm;29352;48.708;9.290;2023-07-13T21:54:18;51.77;50.53;52.98;;
48148;Laerm;29352;48.708;9.290;2023-07-13T21:56:46;51.65;50.33;52.93;;
48148;Laerm;29352;48.708;9.290;2023-07-13T21:59:18;51.65;50.33;58.42;;
48148;Laerm;29352;48.708;9.290;2023-07-13T22:01:44;51.65;49.81;53.90;;
48148;Laerm;29352;48.708;9.290;2023-07-13T22:04:16;51.63;50.13;52.76;;
48148;Laerm;29352;48.708;9.290;2023-07-13T22:06:42;51.50;50.03;52.65;;
48148;Laerm;29352;48.708;9.290;2023-07-13T22:09:17;51.64;50.23;56.64;;
48148;Laerm;29352;48.708;9.290;2023-07-13T22:11:43;51.56;50.23;54.62;;
48148;Laerm;29352;48.708;9.290;2023-07-13T22:14:09;51.62;50.23;52.98;;
48148;Laerm;29352;48.708;9.290;2023-07-13T22:16:35;51.58;50.23;53.54;;
48148;Laerm;29352;48.708;9.290;2023-07-13T22:19:12;51.56;50.33;54.31;;
48148;Laerm;29352;48.708;9.290;2023-07-13T22:21:38;51.61;50.33;52.76;;
48148;Laerm;29352;48.708;9.290;2023-07-13T22:24:11;51.66;50.23;52.90;;
48148;Laerm;29352;48.708;9.290;2023-07-13T22:26:38;51.55;50.33;52.76;;
48148;Laerm;29352;48.708;9.290;2023-07-13T22:29:16;51.49;50.13;55.57;;
48148;Laerm;29352;48.708;9.290;2023-07-13T22:31:42;51.37;49.92;52.76;;
48148;Laerm;29352;48.708;9.290;2023-07-13T22:34:19;51.37;50.03;52.76;;
48148;Laerm;29352;48.708;9.290;2023-07-13T22:36:47;51.42;50.03;52.76;;
48148;Laerm;29352;48.708;9.290;2023-07-13T22:39:23;51.37;49.81;52.71;;
48148;Laerm;29352;48.708;9.290;2023-07-13T22:41:51;51.30;49.92;52.47;;
48148;Laerm;29352;48.708;9.290;2023-07-13T22:44:23;51.23;49.81;52.47;;
48148;Laerm;29352;48.708;9.290;2023-07-13T22:46:51;51.30;50.03;52.47;;
48148;Laerm;29352;48.708;9.290;2023-07-13T22:49:28;51.35;49.92;52.41;;
48148;Laerm;29352;48.708;9.290;2023-07-13T22:51:56;51.30;50.13;52.41;;
48148;Laerm;29352;48.708;9.290;2023-07-13T22:54:22;51.23;49.70;52.82;;
48148;Laerm;29352;48.708;9.290;2023-07-13T22:56:48;51.28;49.81;52.47;;
48148;Laerm;29352;48.708;9.290;2023-07-13T22:59:14;51.23;49.58;52.82;;
48148;Laerm;29352;48.708;9.290;2023-07-13T23:01:42;51.22;49.46;52.53;;
48148;Laerm;29352;48.708;9.290;2023-07-13T23:04:27;51.27;49.92;52.59;;
48148;Laerm;29352;48.708;9.290;2023-07-13T23:06:55;51.24;49.58;52.53;;
48148;Laerm;29352;48.708;9.290;2023-07-13T23:09:24;51.23;49.70;52.53;;
48148;Laerm;29352;48.708;9.290;2023-07-13T23:11:51;51.20;49.70;52.47;;
48148;Laerm;29352;48.708;9.290;2023-07-13T23:14:17;51.20;49.46;52.41;;
48148;Laerm;29352;48.708;9.290;2023-07-13T23:16:43;51.19;49.81;52.53;;
48148;Laerm;29352;48.708;9.290;2023-07-13T23:19:27;51.22;49.46;52.53;;
48148;Laerm;29352;48.708;9.290;2023-07-13T23:21:54;51.21;49.81;52.29;;
48148;Laerm;29352;48.708;9.290;2023-07-13T23:24:19;51.17;49.70;52.35;;
48148;Laerm;29352;48.708;9.290;2023-07-13T23:26:45;51.14;49.58;52.29;;
48148;Laerm;29352;48.708;9.290;2023-07-13T23:29:12;51.21;49.92;52.41;;
48148;Laerm;29352;48.708;9.290;2023-07-13T23:31:38;51.21;49.81;52.59;;
48148;Laerm;29352;48.708;9.290;2023-07-13T23:34:15;51.13;49.46;52.41;;
48148;Laerm;29352;48.708;9.290;2023-07-13T23:36:41;51.05;49.34;52.29;;
48148;Laerm;29352;48.708;9.290;2023-07-13T23:39:17;51.15;49.46;52.41;;
48148;Laerm;29352;48.708;9.290;2023-07-13T23:41:45;51.12;49.70;52.42;;
48148;Laerm;29352;48.708;9.290;2023-07-13T23:44:15;51.08;49.46;52.47;;
48148;Laerm;29352;48.708;9.290;2023-07-13T23:46:44;51.10;49.70;52.47;;
48148;Laerm;29352;48.708;9.290;2023-07-13T23:49:32;51.15;49.70;52.47;;
48148;Laerm;29352;48.708;9.290;2023-07-13T23:52:08;51.18;49.58;52.53;;
48148;Laerm;29352;48.708;9.290;2023-07-13T23:54:35;51.10;49.68;52.22;;
48148;Laerm;29352;48.708;9.290;2023-07-13T23:57:01;51.18;49.81;52.35;;
48148;Laerm;29352;48.708;9.290;2023-07-13T23:59:27;51.11;49.70;52.41;;
